createdAt,value
2023-05-09T00:01:51.942Z,10.57
2023-05-09T00:04:18.202Z,10.61
2023-05-09T00:06:44.435Z,10.49
2023-05-09T00:09:10.643Z,10.59
2023-05-09T00:11:36.853Z,10.43
2023-05-09T00:14:03.064Z,10.30
2023-05-09T00:16:29.309Z,10.38
2023-05-09T00:18:55.542Z,10.47
2023-05-09T00:21:21.755Z,10.46
2023-05-09T00:23:47.949Z,10.32
2023-05-09T00:26:14.190Z,10.38
2023-05-09T00:28:40.407Z,10.46
2023-05-09T00:31:06.613Z,10.26
2023-05-09T00:33:32.827Z,10.18
2023-05-09T00:35:59.112Z,10.27
2023-05-09T00:38:25.378Z,10.22
2023-05-09T00:40:51.605Z,10.15
2023-05-09T00:43:17.829Z,10.31
2023-05-09T00:45:44.874Z,10.18
2023-05-09T00:48:11.100Z,10.18
2023-05-09T00:50:37.317Z,10.13
2023-05-09T00:53:03.964Z,10.26
2023-05-09T00:55:30.186Z,10.26
2023-05-09T00:57:56.394Z,10.15
2023-05-09T01:00:22.610Z,10.23
2023-05-09T01:02:53.257Z,10.09
2023-05-09T01:05:19.849Z,10.06
2023-05-09T01:07:49.646Z,10.25
2023-05-09T01:10:18.903Z,10.33
2023-05-09T01:12:45.091Z,10.22
2023-05-09T01:15:29.913Z,10.18
2023-05-09T01:18:14.673Z,10.13
2023-05-09T01:20:44.976Z,10.07
2023-05-09T01:23:23.205Z,9.94
2023-05-09T01:26:04.905Z,10.04
2023-05-09T01:28:46.339Z,10.11
2023-05-09T01:31:12.579Z,9.99
2023-05-09T01:33:39.068Z,10.08
2023-05-09T01:36:06.177Z,10.01
2023-05-09T01:38:32.633Z,9.95
2023-05-09T01:40:58.901Z,9.86
2023-05-09T01:43:25.413Z,9.71
2023-05-09T01:45:51.634Z,9.60
2023-05-09T01:48:17.835Z,9.63
2023-05-09T01:50:44.294Z,9.54
2023-05-09T01:53:10.636Z,9.75
2023-05-09T01:55:36.848Z,9.88
2023-05-09T01:58:03.520Z,9.72
2023-05-09T02:00:29.792Z,9.51
2023-05-09T02:02:56.244Z,9.66
2023-05-09T02:05:22.825Z,9.49
2023-05-09T02:07:49.029Z,9.67
2023-05-09T02:10:15.440Z,9.71
2023-05-09T02:12:41.718Z,9.72
2023-05-09T02:15:08.139Z,9.59
2023-05-09T02:17:34.351Z,9.51
2023-05-09T02:20:00.575Z,9.40
2023-05-09T02:22:26.774Z,9.60
2023-05-09T02:24:52.992Z,9.66
2023-05-09T02:27:19.197Z,9.63
2023-05-09T02:29:49.028Z,9.70
2023-05-09T02:32:15.954Z,9.55
2023-05-09T02:34:42.471Z,9.64
2023-05-09T02:37:08.799Z,9.64
2023-05-09T02:39:35.029Z,9.49
2023-05-09T02:42:10.996Z,9.63
2023-05-09T02:44:37.252Z,9.60
2023-05-09T02:47:03.502Z,9.49
2023-05-09T02:49:32.474Z,9.38
2023-05-09T02:51:59.018Z,9.45
2023-05-09T02:54:25.248Z,9.49
2023-05-09T02:56:51.453Z,9.43
2023-05-09T02:59:18.111Z,9.51
2023-05-09T03:01:44.349Z,9.39
2023-05-09T03:04:10.620Z,9.37
2023-05-09T03:06:36.841Z,9.39
2023-05-09T03:09:03.049Z,9.51
2023-05-09T03:11:29.249Z,9.54
2023-05-09T03:13:55.457Z,9.42
2023-05-09T03:16:21.780Z,9.25
2023-05-09T03:18:48.060Z,9.31
2023-05-09T03:21:14.266Z,9.38
2023-05-09T03:23:40.547Z,9.43
2023-05-09T03:26:06.757Z,9.37
2023-05-09T03:28:32.966Z,9.26
2023-05-09T03:30:59.236Z,9.26
2023-05-09T03:33:25.615Z,9.32
2023-05-09T03:35:51.931Z,9.29
2023-05-09T03:38:18.155Z,9.23
2023-05-09T03:40:44.388Z,9.30
2023-05-09T03:43:10.608Z,9.35
2023-05-09T03:45:36.819Z,9.37
2023-05-09T03:48:03.163Z,9.41
2023-05-09T03:50:29.534Z,9.39
2023-05-09T03:52:55.753Z,9.29
2023-05-09T03:55:21.987Z,9.30
2023-05-09T03:57:48.255Z,9.38
2023-05-09T04:00:14.598Z,9.51
2023-05-09T04:02:41.566Z,9.44
2023-05-09T04:05:07.916Z,9.55
2023-05-09T04:07:34.130Z,9.52
2023-05-09T04:10:00.384Z,9.51
2023-05-09T04:12:26.964Z,9.52
2023-05-09T04:14:53.180Z,9.58
2023-05-09T04:17:19.378Z,9.62
2023-05-09T04:19:45.596Z,9.59
2023-05-09T04:22:11.828Z,9.68
2023-05-09T04:24:38.035Z,9.71
2023-05-09T04:27:04.525Z,9.71
2023-05-09T04:29:31.009Z,9.82
2023-05-09T04:31:57.321Z,9.91
2023-05-09T04:34:23.716Z,10.03
2023-05-09T04:36:49.931Z,10.10
2023-05-09T04:39:16.165Z,10.20
2023-05-09T04:41:51.278Z,10.26
2023-05-09T04:44:17.504Z,10.33
2023-05-09T04:46:46.141Z,10.50
2023-05-09T04:49:13.152Z,10.79
2023-05-09T04:51:39.361Z,10.79
2023-05-09T04:54:05.637Z,11.08
2023-05-09T04:56:31.835Z,11.27
2023-05-09T04:58:58.050Z,11.74
2023-05-09T05:01:24.299Z,11.89
2023-05-09T05:03:50.564Z,11.78
2023-05-09T05:06:16.812Z,12.23
2023-05-09T05:08:43.114Z,12.14
2023-05-09T05:11:09.351Z,12.27
2023-05-09T05:13:35.585Z,12.29
2023-05-09T05:16:01.838Z,12.57
2023-05-09T05:18:28.073Z,12.73
2023-05-09T05:20:54.281Z,13.17
2023-05-09T05:23:20.607Z,13.12
2023-05-09T05:25:46.829Z,13.21
2023-05-09T05:28:13.044Z,13.53
2023-05-09T05:30:40.224Z,14.22
2023-05-09T05:33:06.477Z,14.60
2023-05-09T05:35:32.823Z,14.64
2023-05-09T05:38:00.278Z,14.57
2023-05-09T05:40:26.506Z,14.92
2023-05-09T05:42:52.723Z,15.44
2023-05-09T05:45:18.966Z,14.87
2023-05-09T05:47:45.236Z,15.23
2023-05-09T05:50:12.124Z,15.22
2023-05-09T05:52:38.919Z,15.58
2023-05-09T05:55:05.287Z,15.04
2023-05-09T05:57:31.729Z,14.64
2023-05-09T05:59:57.948Z,14.14
2023-05-09T06:02:24.309Z,14.31
2023-05-09T06:04:50.588Z,14.48
2023-05-09T06:07:16.831Z,14.99
2023-05-09T06:09:43.053Z,14.76
2023-05-09T06:12:09.354Z,14.89
2023-05-09T06:14:38.909Z,14.88
2023-05-09T06:17:05.125Z,15.52
2023-05-09T06:19:31.461Z,16.19
2023-05-09T06:22:01.171Z,16.32
2023-05-09T06:24:35.620Z,16.35
2023-05-09T06:27:04.205Z,16.91
2023-05-09T06:29:30.472Z,16.36
2023-05-09T06:31:56.762Z,16.29
2023-05-09T06:34:23.169Z,16.25
2023-05-09T06:36:49.395Z,16.02
2023-05-09T06:39:15.602Z,15.65
2023-05-09T06:41:41.806Z,16.11
2023-05-09T06:44:08.195Z,16.30
2023-05-09T06:46:34.492Z,16.46
2023-05-09T06:49:00.730Z,16.26
2023-05-09T06:51:27.261Z,16.47
2023-05-09T06:53:53.500Z,16.15
2023-05-09T06:56:20.127Z,16.26
2023-05-09T06:58:46.485Z,16.72
2023-05-09T07:01:12.761Z,16.62
2023-05-09T07:03:38.993Z,17.42
2023-05-09T07:06:05.624Z,17.18
2023-05-09T07:08:31.839Z,16.97
2023-05-09T07:10:58.060Z,16.42
2023-05-09T07:13:24.366Z,16.27
2023-05-09T07:15:51.547Z,16.83
2023-05-09T07:18:18.807Z,16.80
2023-05-09T07:20:45.088Z,17.03
2023-05-09T07:23:12.662Z,17.08
2023-05-09T07:25:38.944Z,17.05
2023-05-09T07:28:06.432Z,16.91
2023-05-09T07:30:32.674Z,17.15
2023-05-09T07:32:58.926Z,17.46
2023-05-09T07:38:05.494Z,17.71
2023-05-09T07:40:32.012Z,18.01
2023-05-09T07:42:58.733Z,18.11
2023-05-09T07:45:24.952Z,17.85
2023-05-09T07:47:51.340Z,17.62
2023-05-09T07:50:20.080Z,18.45
2023-05-09T07:52:48.673Z,18.93
2023-05-09T07:55:15.033Z,18.54
2023-05-09T07:57:41.453Z,18.07
2023-05-09T08:00:07.993Z,17.67
2023-05-09T08:02:34.326Z,18.06
2023-05-09T08:05:00.596Z,18.01
2023-05-09T08:07:28.023Z,18.17
2023-05-09T08:09:55.527Z,18.49
2023-05-09T08:15:02.042Z,18.58
2023-05-09T08:17:28.295Z,19.09
2023-05-09T08:19:54.591Z,18.57
2023-05-09T08:22:21.667Z,18.54
2023-05-09T08:24:50.053Z,18.62
2023-05-09T08:27:16.275Z,18.79
2023-05-09T08:29:42.533Z,19.27
2023-05-09T08:32:08.783Z,19.50
2023-05-09T08:34:35.060Z,20.72
2023-05-09T08:37:01.596Z,20.77
2023-05-09T08:39:27.808Z,20.39
2023-05-09T08:41:55.975Z,20.42
2023-05-09T08:44:22.188Z,20.95
2023-05-09T08:46:48.403Z,20.06
2023-05-09T08:49:14.678Z,19.99
2023-05-09T08:51:40.894Z,20.25
2023-05-09T08:54:07.099Z,21.12
2023-05-09T08:56:33.652Z,21.11
2023-05-09T08:58:59.876Z,20.80
2023-05-09T09:01:26.120Z,21.55
2023-05-09T09:03:52.522Z,21.38
2023-05-09T09:06:18.730Z,21.51
2023-05-09T09:08:44.965Z,21.78
2023-05-09T09:11:11.783Z,21.71
2023-05-09T09:13:38.065Z,21.19
2023-05-09T09:16:04.448Z,21.54
2023-05-09T09:18:30.988Z,21.43
2023-05-09T09:20:57.801Z,21.30
2023-05-09T09:23:24.481Z,20.72
2023-05-09T09:25:59.493Z,19.59
2023-05-09T09:28:26.279Z,20.06
2023-05-09T09:30:52.478Z,20.06
2023-05-09T09:33:19.233Z,20.15
2023-05-09T09:35:45.444Z,20.08
2023-05-09T09:38:11.663Z,19.63
2023-05-09T09:40:37.858Z,20.29
2023-05-09T09:43:04.066Z,20.38
2023-05-09T09:45:30.273Z,20.35
2023-05-09T09:47:56.528Z,20.68
2023-05-09T09:50:22.762Z,21.00
2023-05-09T09:52:52.673Z,21.06
2023-05-09T09:55:19.116Z,20.93
2023-05-09T09:57:45.571Z,20.50
2023-05-09T10:00:12.846Z,20.57
2023-05-09T10:02:48.843Z,20.83
2023-05-09T10:05:18.538Z,20.26
2023-05-09T10:07:44.760Z,20.13
2023-05-09T10:10:10.956Z,20.60
2023-05-09T10:12:37.189Z,21.09
2023-05-09T10:15:03.513Z,20.92
2023-05-09T10:17:29.984Z,20.76
2023-05-09T10:19:56.298Z,20.17
2023-05-09T10:22:22.510Z,20.16
2023-05-09T10:24:56.999Z,20.20
2023-05-09T10:27:23.987Z,20.28
2023-05-09T10:29:51.988Z,20.48
2023-05-09T10:32:20.177Z,20.83
2023-05-09T10:34:47.709Z,20.35
2023-05-09T10:37:13.936Z,20.01
2023-05-09T10:39:40.678Z,21.02
2023-05-09T10:42:06.974Z,21.08
2023-05-09T10:44:33.183Z,21.34
2023-05-09T10:46:59.469Z,20.85
2023-05-09T10:49:25.768Z,21.50
2023-05-09T10:51:51.990Z,21.95
2023-05-09T10:54:30.119Z,22.03
2023-05-09T10:56:57.173Z,22.00
2023-05-09T10:59:32.502Z,21.81
2023-05-09T11:01:58.768Z,22.07
2023-05-09T11:04:24.992Z,21.51
2023-05-09T11:06:51.937Z,21.90
2023-05-09T11:09:24.582Z,22.04
2023-05-09T11:11:51.180Z,22.07
2023-05-09T11:14:32.857Z,22.44
2023-05-09T11:16:59.595Z,21.67
2023-05-09T11:19:44.632Z,20.82
2023-05-09T11:22:14.528Z,21.10
2023-05-09T11:24:44.229Z,20.86
2023-05-09T11:27:25.971Z,21.30
2023-05-09T11:29:52.133Z,21.46
2023-05-09T11:32:18.552Z,21.38
2023-05-09T11:34:44.849Z,21.29
2023-05-09T11:37:11.612Z,20.86
2023-05-09T11:39:56.747Z,21.27
2023-05-09T11:42:23.334Z,21.34
2023-05-09T11:44:49.558Z,21.65
2023-05-09T11:47:16.384Z,21.75
2023-05-09T11:49:43.009Z,21.80
2023-05-09T11:52:09.219Z,21.21
2023-05-09T11:54:38.591Z,21.66
2023-05-09T11:57:04.926Z,21.84
2023-05-09T11:59:31.154Z,21.18
2023-05-09T12:01:57.376Z,21.47
2023-05-09T12:04:23.616Z,21.66
2023-05-09T12:06:49.858Z,21.25
2023-05-09T12:09:16.074Z,21.52
2023-05-09T12:11:51.618Z,20.88
2023-05-09T12:14:30.442Z,20.59
2023-05-09T12:16:56.709Z,20.98
2023-05-09T12:19:23.510Z,21.47
2023-05-09T12:21:49.720Z,21.53
2023-05-09T12:24:20.162Z,21.37
2023-05-09T12:26:46.513Z,20.93
2023-05-09T12:29:12.754Z,20.48
2023-05-09T12:31:39.010Z,20.48
2023-05-09T12:34:05.309Z,20.75
2023-05-09T12:36:34.310Z,20.73
2023-05-09T12:39:00.539Z,21.05
2023-05-09T12:43:55.893Z,20.48
2023-05-09T12:46:22.560Z,20.91
2023-05-09T12:48:49.179Z,20.75
2023-05-09T12:51:19.175Z,21.12
2023-05-09T12:53:45.390Z,20.93
2023-05-09T12:56:20.987Z,21.12
2023-05-09T12:58:50.625Z,21.04
2023-05-09T13:01:17.003Z,21.11
2023-05-09T13:03:43.237Z,21.39
2023-05-09T13:06:12.889Z,21.61
2023-05-09T13:08:39.134Z,21.47
2023-05-09T13:11:15.576Z,21.31
2023-05-09T13:13:42.707Z,21.08
2023-05-09T13:16:10.731Z,20.83
2023-05-09T13:18:37.818Z,20.61
2023-05-09T13:21:04.027Z,20.70
2023-05-09T13:23:30.253Z,20.55
2023-05-09T13:25:56.479Z,20.65
2023-05-09T13:28:22.688Z,20.46
2023-05-09T13:30:48.996Z,20.51
2023-05-09T13:33:25.119Z,20.51
2023-05-09T13:35:52.729Z,20.82
2023-05-09T13:38:18.971Z,20.93
2023-05-09T13:40:45.177Z,20.36
2023-05-09T13:43:11.406Z,19.87
2023-05-09T13:45:37.636Z,19.94
2023-05-09T13:48:04.094Z,19.95
2023-05-09T13:50:30.328Z,19.82
2023-05-09T13:52:56.542Z,20.10
2023-05-09T13:55:22.733Z,20.27
2023-05-09T13:57:49.346Z,20.01
2023-05-09T14:00:15.947Z,20.12
2023-05-09T14:02:42.341Z,20.15
2023-05-09T14:05:08.752Z,20.17
2023-05-09T14:07:34.976Z,20.44
2023-05-09T14:10:15.908Z,20.14
2023-05-09T14:12:42.268Z,20.53
2023-05-09T14:15:08.611Z,19.97
2023-05-09T14:17:34.921Z,20.00
2023-05-09T14:20:01.202Z,19.56
2023-05-09T14:22:27.454Z,19.71
2023-05-09T14:24:53.667Z,19.72
2023-05-09T14:27:19.876Z,19.66
2023-05-09T14:29:47.402Z,19.33
2023-05-09T14:32:13.609Z,19.49
2023-05-09T14:34:39.822Z,19.63
2023-05-09T14:37:06.032Z,19.79
2023-05-09T14:39:32.242Z,19.81
2023-05-09T14:41:58.472Z,20.09
2023-05-09T14:44:24.676Z,20.10
2023-05-09T14:46:50.920Z,20.17
2023-05-09T14:49:17.147Z,20.23
2023-05-09T14:51:43.374Z,20.17
2023-05-09T14:54:09.581Z,19.98
2023-05-09T14:56:35.792Z,20.13
2023-05-09T14:59:01.992Z,20.02
2023-05-09T15:01:28.253Z,20.10
2023-05-09T15:03:54.520Z,19.90
2023-05-09T15:06:20.738Z,19.79
2023-05-09T15:08:46.938Z,19.64
2023-05-09T15:11:13.164Z,19.84
2023-05-09T15:13:39.359Z,20.00
2023-05-09T15:16:05.584Z,19.97
2023-05-09T15:18:31.803Z,19.87
2023-05-09T15:20:58.035Z,19.91
2023-05-09T15:23:24.270Z,19.83
2023-05-09T15:25:50.535Z,19.66
2023-05-09T15:28:16.748Z,19.52
2023-05-09T15:30:43.002Z,19.44
2023-05-09T15:33:09.317Z,19.70
2023-05-09T15:35:36.599Z,19.50
2023-05-09T15:38:02.816Z,19.55
2023-05-09T15:40:29.034Z,19.50
2023-05-09T15:42:55.236Z,19.26
2023-05-09T15:45:21.460Z,19.08
2023-05-09T15:47:47.752Z,18.99
2023-05-09T15:50:14.248Z,18.93
2023-05-09T15:52:40.736Z,19.05
2023-05-09T15:55:07.333Z,18.95
2023-05-09T15:57:33.608Z,18.77
2023-05-09T15:59:59.814Z,18.71
2023-05-09T16:02:26.132Z,18.77
2023-05-09T16:04:52.516Z,18.78
2023-05-09T16:07:18.761Z,18.79
2023-05-09T16:09:44.960Z,18.77
2023-05-09T16:12:11.167Z,18.84
2023-05-09T16:14:37.386Z,18.70
2023-05-09T16:17:03.734Z,18.57
2023-05-09T16:19:29.942Z,18.49
2023-05-09T16:21:56.153Z,18.38
2023-05-09T16:24:22.349Z,18.32
2023-05-09T16:26:48.554Z,18.33
2023-05-09T16:29:14.756Z,18.36
2023-05-09T16:31:41.081Z,18.33
2023-05-09T16:34:07.382Z,18.39
2023-05-09T16:36:33.627Z,18.33
2023-05-09T16:38:59.840Z,18.27
2023-05-09T16:41:26.044Z,18.19
2023-05-09T16:43:52.260Z,18.06
2023-05-09T16:46:18.523Z,18.02
2023-05-09T16:48:44.739Z,17.87
2023-05-09T16:51:10.945Z,17.88
2023-05-09T16:53:37.151Z,17.80
2023-05-09T16:56:03.844Z,17.61
2023-05-09T16:58:30.116Z,17.59
2023-05-09T17:00:56.362Z,17.60
2023-05-09T17:03:22.582Z,17.60
2023-05-09T17:05:48.792Z,17.48
2023-05-09T17:08:14.997Z,17.41
2023-05-09T17:10:42.167Z,17.41
2023-05-09T17:13:08.903Z,17.34
2023-05-09T17:15:35.244Z,17.31
2023-05-09T17:18:01.818Z,17.27
2023-05-09T17:20:28.050Z,17.08
2023-05-09T17:22:54.256Z,17.14
2023-05-09T17:25:20.457Z,17.08
2023-05-09T17:27:46.666Z,16.99
2023-05-09T17:30:13.204Z,17.03
2023-05-09T17:32:39.535Z,16.99
2023-05-09T17:35:05.922Z,17.08
2023-05-09T17:37:32.147Z,16.90
2023-05-09T17:39:58.345Z,16.86
2023-05-09T17:42:24.550Z,16.93
2023-05-09T17:44:50.753Z,16.70
2023-05-09T17:47:16.965Z,16.80
2023-05-09T17:49:43.776Z,16.85
2023-05-09T17:52:09.984Z,16.85
2023-05-09T17:54:36.443Z,16.84
2023-05-09T17:57:02.686Z,16.77
2023-05-09T17:59:28.895Z,16.72
2023-05-09T18:01:55.234Z,16.60
2023-05-09T18:04:21.460Z,16.61
2023-05-09T18:06:48.605Z,16.51
2023-05-09T18:09:14.804Z,16.44
2023-05-09T18:11:41.051Z,16.37
2023-05-09T18:14:07.266Z,16.32
2023-05-09T18:16:33.997Z,16.29
2023-05-09T18:19:00.265Z,16.25
2023-05-09T18:21:26.478Z,16.19
2023-05-09T18:23:52.900Z,16.08
2023-05-09T18:26:19.123Z,16.10
2023-05-09T18:28:45.365Z,15.99
2023-05-09T18:31:11.743Z,16.01
2023-05-09T18:33:38.109Z,15.92
2023-05-09T18:36:04.933Z,15.87
2023-05-09T18:38:31.146Z,15.82
2023-05-09T18:40:57.356Z,15.78
2023-05-09T18:43:23.566Z,15.74
2023-05-09T18:45:49.781Z,15.62
2023-05-09T18:48:15.998Z,15.62
2023-05-09T18:50:42.214Z,15.69
2023-05-09T18:53:08.428Z,15.63
2023-05-09T18:55:34.659Z,15.41
2023-05-09T18:58:00.882Z,15.55
2023-05-09T19:00:27.876Z,15.51
2023-05-09T19:02:54.152Z,15.44
2023-05-09T19:05:20.402Z,15.32
2023-05-09T19:07:46.659Z,15.25
2023-05-09T19:10:13.146Z,15.40
2023-05-09T19:12:39.584Z,15.27
2023-05-09T19:15:06.053Z,15.10
2023-05-09T19:17:32.298Z,15.04
2023-05-09T19:19:58.524Z,15.13
2023-05-09T19:22:24.730Z,15.25
2023-05-09T19:24:50.939Z,15.20
2023-05-09T19:27:17.510Z,15.07
2023-05-09T19:29:43.712Z,14.98
2023-05-09T19:32:09.924Z,14.91
2023-05-09T19:34:36.136Z,14.98
2023-05-09T19:37:02.891Z,14.92
2023-05-09T19:39:29.129Z,14.99
2023-05-09T19:41:55.372Z,14.96
2023-05-09T19:44:21.590Z,14.96
2023-05-09T19:46:48.164Z,14.82
2023-05-09T19:49:15.400Z,14.73
2023-05-09T19:51:42.214Z,14.76
2023-05-09T19:54:08.421Z,14.54
2023-05-09T19:56:34.642Z,14.61
2023-05-09T19:59:00.830Z,14.63
2023-05-09T20:01:27.071Z,14.46
2023-05-09T20:03:53.368Z,14.47
2023-05-09T20:06:19.695Z,14.41
2023-05-09T20:08:45.911Z,14.54
2023-05-09T20:11:12.515Z,14.59
2023-05-09T20:13:38.727Z,14.62
2023-05-09T20:16:05.006Z,14.50
2023-05-09T20:18:31.214Z,14.42
2023-05-09T20:20:57.468Z,14.48
2023-05-09T20:23:23.666Z,14.44
2023-05-09T20:25:49.889Z,14.40
2023-05-09T20:28:16.087Z,14.27
2023-05-09T20:30:42.289Z,14.25
2023-05-09T20:33:08.600Z,14.20
2023-05-09T20:35:34.877Z,14.20
2023-05-09T20:38:01.114Z,14.18
2023-05-09T20:40:27.322Z,14.16
2023-05-09T20:42:53.531Z,14.10
2023-05-09T20:45:19.825Z,13.97
2023-05-09T20:47:46.068Z,13.73
2023-05-09T20:50:12.309Z,13.91
2023-05-09T20:52:38.530Z,13.78
2023-05-09T20:55:04.968Z,13.91
2023-05-09T20:57:31.192Z,13.82
2023-05-09T20:59:57.411Z,13.76
2023-05-09T21:02:23.700Z,13.87
2023-05-09T21:04:49.954Z,13.83
2023-05-09T21:07:16.181Z,13.77
2023-05-09T21:09:42.373Z,13.58
2023-05-09T21:12:11.060Z,13.62
2023-05-09T21:14:37.463Z,13.61
2023-05-09T21:17:03.681Z,13.54
2023-05-09T21:19:29.940Z,13.51
2023-05-09T21:21:56.260Z,13.60
2023-05-09T21:24:22.470Z,13.55
2023-05-09T21:26:48.684Z,13.50
2023-05-09T21:29:14.890Z,13.46
2023-05-09T21:31:41.296Z,13.45
2023-05-09T21:34:07.559Z,13.27
2023-05-09T21:36:33.772Z,13.32
2023-05-09T21:38:59.980Z,13.36
2023-05-09T21:41:26.203Z,13.17
2023-05-09T21:43:52.415Z,13.27
2023-05-09T21:46:18.712Z,13.19
2023-05-09T21:48:44.997Z,13.07
2023-05-09T21:51:11.218Z,13.05
2023-05-09T21:53:37.414Z,13.14
2023-05-09T21:56:03.709Z,13.09
2023-05-09T21:58:30.046Z,13.12
2023-05-09T22:00:56.256Z,13.14
2023-05-09T22:03:22.555Z,13.09
2023-05-09T22:05:48.867Z,12.83
2023-05-09T22:08:15.076Z,12.86
2023-05-09T22:10:41.295Z,12.92
2023-05-09T22:13:08.440Z,12.96
2023-05-09T22:15:34.671Z,13.05
2023-05-09T22:18:01.038Z,12.88
2023-05-09T22:20:27.310Z,12.81
2023-05-09T22:22:53.517Z,12.82
2023-05-09T22:25:19.736Z,12.68
2023-05-09T22:27:45.946Z,12.78
2023-05-09T22:30:12.334Z,12.80
2023-05-09T22:32:39.017Z,12.84
2023-05-09T22:35:05.480Z,12.71
2023-05-09T22:37:31.697Z,12.67
2023-05-09T22:39:57.916Z,12.62
2023-05-09T22:42:24.126Z,12.70
2023-05-09T22:44:50.347Z,12.62
2023-05-09T22:47:16.561Z,12.53
2023-05-09T22:49:44.566Z,12.51
2023-05-09T22:52:11.999Z,12.60
2023-05-09T22:54:38.218Z,12.53
2023-05-09T22:57:04.436Z,12.55
2023-05-09T22:59:30.652Z,12.57
2023-05-09T23:01:56.865Z,12.54
2023-05-09T23:04:23.082Z,12.40
2023-05-09T23:06:49.320Z,12.36
2023-05-09T23:09:15.519Z,12.43
2023-05-09T23:11:41.721Z,12.47
2023-05-09T23:14:07.959Z,12.38
2023-05-09T23:16:34.174Z,12.04
2023-05-09T23:19:00.396Z,12.29
2023-05-09T23:21:26.616Z,12.33
2023-05-09T23:23:52.834Z,12.25
2023-05-09T23:26:19.036Z,12.29
2023-05-09T23:28:45.261Z,12.34
2023-05-09T23:31:11.487Z,12.34
2023-05-09T23:33:37.724Z,12.22
2023-05-09T23:36:04.025Z,12.21
2023-05-09T23:38:30.230Z,12.21
2023-05-09T23:40:56.432Z,12.22
2023-05-09T23:43:22.648Z,12.03
2023-05-09T23:45:48.928Z,12.08
2023-05-09T23:48:15.136Z,12.08
2023-05-09T23:50:41.346Z,11.98
2023-05-09T23:53:07.560Z,12.00
2023-05-09T23:55:33.770Z,11.90
2023-05-09T23:57:59.983Z,11.91
